Anzahl Datensätze: 24
min. Temperatur: -3.9 °C
max. Temperatur: 11.3 °C
max. Windgeschwindigkeit: 20.9 km/h
Niederschlagsumme: 0.0 mm
| Datum |
Zeit |
Temp °C |
Feuchte % |
Taupunkt °C |
Luftdruck hPa |
Wind km/h |
Windrichtung |
Strahlung w/m² |
Niederschlag mm |
|---|---|---|---|---|---|---|---|---|---|
| 02.03.2023 | 00:06 | -2.0 | 85 | -4.2 | 1024.0 | 0.0 | NW | 0 | 0.0 |
| 02.03.2023 | 01:06 | -2.6 | 85 | -4.8 | 1023.7 | 0.0 | NW | 0 | 0.0 |
| 02.03.2023 | 02:06 | -2.8 | 87 | -4.7 | 1023.8 | 0.0 | NW | 0 | 0.0 |
| 02.03.2023 | 03:06 | -3.1 | 87 | -5.0 | 1023.4 | 0.0 | NW | 0 | 0.0 |
| 02.03.2023 | 04:06 | -3.2 | 88 | -4.9 | 1023.3 | 0.0 | NW | 0 | 0.0 |
| 02.03.2023 | 05:06 | -3.4 | 89 | -5.0 | 1022.8 | 0.0 | NW | 0 | 0.0 |
| 02.03.2023 | 06:06 | -3.9 | 89 | -5.4 | 1022.7 | 0.0 | NW | 0 | 0.0 |
| 02.03.2023 | 07:06 | -3.9 | 91 | -5.2 | 1022.8 | 0.0 | NW | 0 | 0.0 |
| 02.03.2023 | 08:06 | -3.6 | 92 | -4.7 | 1023.1 | 0.0 | NW | 97 | 0.0 |
| 02.03.2023 | 09:06 | -0.7 | 86 | -2.7 | 1023.2 | 0.0 | NW | 292 | 0.0 |
| 02.03.2023 | 10:06 | 1.6 | 82 | -1.1 | 1022.8 | 0.0 | NW | 457 | 0.0 |
| 02.03.2023 | 11:06 | 5.9 | 66 | 0.0 | 1022.4 | 0.0 | O | 561 | 0.0 |
| 02.03.2023 | 12:06 | 7.4 | 64 | 1.0 | 1022.2 | 0.0 | O | 621 | 0.0 |
| 02.03.2023 | 13:06 | 8.1 | 61 | 1.0 | 1021.8 | 0.0 | OSO | 613 | 0.0 |
| 02.03.2023 | 14:06 | 9.5 | 58 | 1.6 | 1021.3 | 0.0 | O | 555 | 0.0 |
| 02.03.2023 | 15:06 | 10.7 | 55 | 2.0 | 1021.1 | 0.0 | O | 424 | 0.0 |
| 02.03.2023 | 16:06 | 11.3 | 55 | 2.6 | 1020.9 | 0.0 | O | 265 | 0.0 |
| 02.03.2023 | 17:06 | 10.9 | 56 | 2.5 | 1020.8 | 0.0 | O | 83 | 0.0 |
| 02.03.2023 | 18:06 | 9.9 | 58 | 2.0 | 1021.5 | 0.0 | NO | 7 | 0.0 |
| 02.03.2023 | 19:06 | 7.3 | 66 | 1.4 | 1022.3 | 0.0 | NO | 0 | 0.0 |
| 02.03.2023 | 20:06 | 4.6 | 74 | 0.4 | 1023.0 | 0.0 | W | 0 | 0.0 |
| 02.03.2023 | 21:06 | 2.6 | 81 | -0.3 | 1023.3 | 0.0 | W | 0 | 0.0 |
| 02.03.2023 | 22:06 | 1.4 | 84 | -1.0 | 1023.7 | 0.0 | NNW | 0 | 0.0 |
| 02.03.2023 | 23:06 | 0.3 | 85 | -1.9 | 1023.8 | 0.0 | NNW | 0 | 0.0 |